Northern Highway — 3EVE6 — position and weather

sailwx.info

Track history (hours):
 
Tides and Currents Weather Stations Pressure Air Temp Water Temp Dewpoint Dewpoint Depression Visibility Wind Speed Wind Dir Waves Ship Positions

Northern Highway

Last reported at 2016-Apr-30 04:33 UTC. Time now 2016-May-01 09:51 UTC.
Position N 28°50' W 014°38'.

Length 188 m; draft 7.5 m.

Type: Cargo ship. MMSI: 371608000.

Date/timePositionNaut miles runAvg speedWind from/ knotsBaromVisibWave heightAir tempDewpointWater temp
2016-Apr-30 04:33N 28°50' W 014°38'1414.1
2016-Apr-30 03:33N 28°37' W 014°43'1414.3
2016-Apr-30 02:33N 28°24' W 014°48'1414.2
2016-Apr-30 01:34N 28°10' W 014°53'1414.2
2016-Apr-30 00:34N 27°57' W 014°59'1413.8
2016-Apr-29 23:33N 27°44' W 015°05'1414.2
2016-Apr-29 22:33N 27°31' W 015°11'67814.3
2016-Apr-27 23:04N 16°31' W 017°55'2314.1
2016-Apr-27 21:26N 16°08' W 017°57'1213.9
2016-Apr-27 20:33N 15°56' W 017°58'13813.8
2016-Apr-27 10:32N 13°38' W 017°54'  
Track history (hours):
 
Tides and Currents Weather Stations Pressure Air Temp Water Temp Dewpoint Dewpoint Depression Visibility Wind Speed Wind Dir Waves Ship Positions

Northern Highway

Last reported at 2016-Apr-30 04:33 UTC. Time now 2016-May-01 09:51 UTC.
Position N 28°50' W 014°38'.

Length 188 m; draft 7.5 m.

Type: Cargo ship. MMSI: 371608000.

Date/timePositionNaut miles runAvg speedWind from/ knotsBaromVisibWave heightAir tempDewpointWater temp
2016-Apr-30 04:33N 28°50' W 014°38'1414.1
2016-Apr-30 03:33N 28°37' W 014°43'1414.3
2016-Apr-30 02:33N 28°24' W 014°48'1414.2
2016-Apr-30 01:34N 28°10' W 014°53'1414.2
2016-Apr-30 00:34N 27°57' W 014°59'1413.8
2016-Apr-29 23:33N 27°44' W 015°05'1414.2
2016-Apr-29 22:33N 27°31' W 015°11'67814.3
2016-Apr-27 23:04N 16°31' W 017°55'2314.1
2016-Apr-27 21:26N 16°08' W 017°57'1213.9
2016-Apr-27 20:33N 15°56' W 017°58'13813.8
2016-Apr-27 10:32N 13°38' W 017°54'  

Dump ship's entire track history